createdAt,value
2023-04-03T00:01:10.442Z,10.00
2023-04-03T00:03:37.798Z,10.00
2023-04-03T00:06:07.692Z,9.90
2023-04-03T00:08:34.828Z,9.90
2023-04-03T00:11:02.522Z,9.90
2023-04-03T00:13:29.584Z,9.80
2023-04-03T00:15:56.629Z,9.80
2023-04-03T00:18:23.727Z,9.80
2023-04-03T00:20:51.139Z,9.80
2023-04-03T00:23:18.068Z,9.80
2023-04-03T00:25:45.258Z,9.80
2023-04-03T00:28:12.321Z,9.80
2023-04-03T00:30:39.605Z,9.80
2023-04-03T00:33:07.253Z,9.80
2023-04-03T00:35:36.163Z,9.70
2023-04-03T00:38:03.341Z,9.70
2023-04-03T00:40:35.803Z,9.70
2023-04-03T00:43:06.792Z,9.70
2023-04-03T00:45:43.746Z,9.70
2023-04-03T00:48:19.364Z,9.70
2023-04-03T00:50:47.199Z,9.70
2023-04-03T00:53:21.780Z,9.70
2023-04-03T00:55:50.572Z,9.70
2023-04-03T00:58:20.090Z,9.70
2023-04-03T01:00:57.238Z,9.70
2023-04-03T01:03:25.090Z,9.70
2023-04-03T01:05:52.658Z,9.70
2023-04-03T01:08:20.194Z,9.80
2023-04-03T01:10:47.147Z,9.70
2023-04-03T01:13:27.469Z,9.80
2023-04-03T01:15:55.574Z,9.80
2023-04-03T01:18:24.884Z,9.80
2023-04-03T01:21:37.081Z,9.80
2023-04-03T01:24:32.740Z,9.80
2023-04-03T01:27:02.196Z,9.80
2023-04-03T01:29:29.304Z,9.80
2023-04-03T01:31:59.220Z,9.80
2023-04-03T01:34:27.800Z,9.80
2023-04-03T01:36:55.316Z,9.80
2023-04-03T01:39:23.095Z,9.80
2023-04-03T01:41:51.418Z,9.80
2023-04-03T01:44:24.642Z,9.80
2023-04-03T01:46:51.709Z,9.80
2023-04-03T01:49:18.714Z,9.90
2023-04-03T01:51:45.977Z,9.80
2023-04-03T01:54:12.947Z,9.80
2023-04-03T01:56:40.171Z,9.80
2023-04-03T01:59:08.454Z,9.80
2023-04-03T02:01:35.568Z,9.80
2023-04-03T02:04:02.826Z,9.80
2023-04-03T02:06:29.890Z,9.80
2023-04-03T02:08:56.821Z,9.70
2023-04-03T02:11:23.859Z,9.70
2023-04-03T02:13:51.132Z,9.60
2023-04-03T02:16:18.145Z,9.60
2023-04-03T02:18:45.314Z,9.60
2023-04-03T02:21:12.331Z,9.60
2023-04-03T02:23:39.383Z,9.50
2023-04-03T02:26:14.823Z,9.50
2023-04-03T02:28:44.413Z,9.40
2023-04-03T02:31:11.878Z,9.40
2023-04-03T02:33:41.339Z,9.30
2023-04-03T02:36:10.956Z,9.30
2023-04-03T02:38:40.533Z,9.20
2023-04-03T02:41:09.996Z,9.20
2023-04-03T02:43:37.348Z,9.10
2023-04-03T02:46:05.571Z,9.10
2023-04-03T02:48:32.638Z,9.00
2023-04-03T02:50:59.529Z,9.00
2023-04-03T02:53:26.520Z,9.00
2023-04-03T02:55:53.783Z,9.00
2023-04-03T02:58:20.919Z,9.00
2023-04-03T03:00:48.159Z,9.00
2023-04-03T03:03:16.045Z,9.00
2023-04-03T03:05:43.009Z,9.00
2023-04-03T03:08:10.054Z,9.00
2023-04-03T03:10:37.198Z,9.00
2023-04-03T03:13:04.370Z,9.00
2023-04-03T03:15:31.285Z,9.00
2023-04-03T03:17:58.414Z,9.00
2023-04-03T03:20:26.522Z,9.00
2023-04-03T03:22:53.578Z,8.90
2023-04-03T03:25:20.464Z,8.90
2023-04-03T03:27:47.462Z,8.90
2023-04-03T03:30:14.419Z,8.80
2023-04-03T03:32:41.650Z,8.80
2023-04-03T03:35:09.026Z,8.80
2023-04-03T03:37:36.041Z,8.80
2023-04-03T03:40:03.778Z,8.80
2023-04-03T03:42:32.205Z,8.80
2023-04-03T03:44:59.496Z,8.70
2023-04-03T03:47:26.760Z,8.80
2023-04-03T03:49:54.018Z,8.80
2023-04-03T03:52:21.078Z,8.70
2023-04-03T03:54:48.172Z,8.70
2023-04-03T03:57:17.321Z,8.80
2023-04-03T03:59:45.315Z,8.70
2023-04-03T04:02:12.892Z,8.70
2023-04-03T04:04:40.003Z,8.70
2023-04-03T04:07:07.228Z,8.60
2023-04-03T04:09:35.324Z,8.60
2023-04-03T04:12:03.389Z,8.60
2023-04-03T04:14:32.918Z,8.60
2023-04-03T04:17:01.182Z,8.50
2023-04-03T04:19:28.587Z,8.50
2023-04-03T04:21:55.812Z,8.50
2023-04-03T04:24:26.343Z,8.50
2023-04-03T04:26:56.038Z,8.40
2023-04-03T04:29:23.959Z,8.40
2023-04-03T04:31:52.638Z,8.40
2023-04-03T04:34:22.280Z,8.40
2023-04-03T04:36:49.550Z,8.40
2023-04-03T04:39:17.152Z,8.30
2023-04-03T04:41:45.017Z,8.30
2023-04-03T04:44:12.322Z,8.30
2023-04-03T04:46:40.070Z,8.30
2023-04-03T04:49:09.104Z,8.30
2023-04-03T04:51:48.312Z,8.30
2023-04-03T04:54:22.369Z,8.30
2023-04-03T04:56:51.023Z,8.30
2023-04-03T04:59:20.654Z,8.30
2023-04-03T05:01:49.682Z,8.30
2023-04-03T05:04:18.873Z,8.30
2023-04-03T05:06:50.098Z,8.20
2023-04-03T05:09:22.807Z,8.20
2023-04-03T05:11:52.091Z,8.20
2023-04-03T05:14:22.490Z,8.20
2023-04-03T05:16:54.157Z,8.20
2023-04-03T05:19:23.945Z,8.30
2023-04-03T05:21:54.024Z,8.50
2023-04-03T05:24:22.683Z,8.50
2023-04-03T05:26:50.744Z,8.50
2023-04-03T05:29:18.720Z,8.50
2023-04-03T05:31:47.071Z,8.40
2023-04-03T05:34:14.708Z,8.30
2023-04-03T05:36:43.356Z,8.30
2023-04-03T05:39:13.249Z,8.20
2023-04-03T05:41:43.264Z,8.30
2023-04-03T05:44:11.467Z,8.30
2023-04-03T05:46:38.841Z,8.40
2023-04-03T05:49:09.700Z,8.60
2023-04-03T05:51:38.874Z,8.70
2023-04-03T05:54:24.049Z,8.90
2023-04-03T05:56:54.135Z,9.00
2023-04-03T05:59:22.573Z,9.20
2023-04-03T06:01:52.327Z,9.20
2023-04-03T06:04:21.546Z,9.40
2023-04-03T06:06:56.052Z,9.50
2023-04-03T06:09:27.588Z,9.80
2023-04-03T06:11:56.097Z,10.40
2023-04-03T06:14:27.028Z,10.90
2023-04-03T06:16:55.392Z,11.20
2023-04-03T06:19:22.939Z,11.30
2023-04-03T06:21:54.502Z,11.40
2023-04-03T06:24:25.123Z,11.50
2023-04-03T06:26:54.882Z,11.70
2023-04-03T06:29:23.046Z,11.90
2023-04-03T06:31:51.362Z,12.00
2023-04-03T06:34:19.084Z,12.00
2023-04-03T06:36:46.320Z,12.00
2023-04-03T06:39:17.579Z,11.90
2023-04-03T06:41:45.422Z,12.00
2023-04-03T06:44:13.910Z,11.90
2023-04-03T06:46:41.984Z,11.90
2023-04-03T06:49:09.860Z,11.90
2023-04-03T06:51:37.802Z,12.00
2023-04-03T06:54:07.722Z,12.00
2023-04-03T06:56:36.570Z,12.10
2023-04-03T06:59:04.513Z,12.20
2023-04-03T07:01:32.796Z,12.30
2023-04-03T07:04:00.774Z,12.50
2023-04-03T07:06:28.645Z,12.60
2023-04-03T07:08:56.846Z,12.80
2023-04-03T07:11:24.041Z,12.90
2023-04-03T07:13:52.146Z,13.10
2023-04-03T07:16:19.442Z,13.20
2023-04-03T07:18:47.469Z,13.30
2023-04-03T07:21:15.143Z,13.40
2023-04-03T07:23:42.250Z,13.50
2023-04-03T07:26:10.746Z,13.70
2023-04-03T07:28:38.008Z,13.80
2023-04-03T07:31:10.009Z,13.90
2023-04-03T07:33:38.212Z,14.00
2023-04-03T07:36:08.092Z,14.10
2023-04-03T07:38:38.907Z,14.20
2023-04-03T07:41:07.074Z,14.30
2023-04-03T07:43:35.479Z,14.40
2023-04-03T07:46:03.499Z,14.50
2023-04-03T07:48:30.632Z,14.60
2023-04-03T07:51:01.649Z,14.80
2023-04-03T07:53:29.279Z,14.90
2023-04-03T07:55:59.129Z,14.90
2023-04-03T07:58:26.911Z,15.10
2023-04-03T08:00:54.068Z,15.20
2023-04-03T08:03:21.430Z,15.40
2023-04-03T08:05:50.329Z,15.60
2023-04-03T08:08:21.715Z,15.70
2023-04-03T08:10:53.836Z,15.80
2023-04-03T08:13:24.155Z,15.90
2023-04-03T08:15:51.865Z,16.00
2023-04-03T08:18:23.495Z,16.10
2023-04-03T08:20:52.146Z,16.20
2023-04-03T08:23:20.322Z,16.20
2023-04-03T08:25:47.918Z,16.20
2023-04-03T08:28:16.223Z,16.30
2023-04-03T08:30:44.995Z,16.40
2023-04-03T08:33:12.982Z,16.50
2023-04-03T08:35:42.809Z,16.50
2023-04-03T08:38:12.732Z,16.40
2023-04-03T08:40:42.153Z,16.20
2023-04-03T08:43:40.350Z,16.10
2023-04-03T08:46:13.638Z,16.30
2023-04-03T08:48:44.877Z,16.40
2023-04-03T08:51:19.600Z,16.40
2023-04-03T08:54:06.097Z,16.50
2023-04-03T08:56:35.872Z,16.60
2023-04-03T08:59:13.668Z,16.60
2023-04-03T09:01:43.468Z,16.80
2023-04-03T09:04:19.763Z,16.90
2023-04-03T09:06:55.233Z,16.90
2023-04-03T09:09:36.154Z,17.00
2023-04-03T09:12:10.724Z,17.00
2023-04-03T09:14:46.879Z,17.00
2023-04-03T09:17:27.225Z,17.10
2023-04-03T09:20:32.523Z,17.20
2023-04-03T09:23:00.975Z,17.10
2023-04-03T09:25:39.767Z,17.00
2023-04-03T09:28:11.274Z,16.90
2023-04-03T09:30:40.380Z,17.00
2023-04-03T09:33:10.841Z,17.10
2023-04-03T09:35:48.040Z,17.30
2023-04-03T09:38:21.437Z,17.40
2023-04-03T09:41:16.687Z,17.40
2023-04-03T09:43:54.925Z,17.40
2023-04-03T09:46:36.155Z,17.50
2023-04-03T09:49:09.777Z,17.50
2023-04-03T09:51:40.325Z,17.60
2023-04-03T09:54:33.539Z,17.70
2023-04-03T09:57:11.923Z,17.80
2023-04-03T09:59:59.860Z,17.80
2023-04-03T10:02:42.327Z,17.80
2023-04-03T10:05:52.171Z,17.80
2023-04-03T10:08:22.438Z,18.10
2023-04-03T10:11:09.083Z,18.30
2023-04-03T10:13:48.777Z,18.30
2023-04-03T10:16:24.098Z,18.20
2023-04-03T10:19:18.832Z,18.00
2023-04-03T10:22:01.988Z,17.80
2023-04-03T10:24:35.229Z,17.60
2023-04-03T10:27:30.446Z,17.40
2023-04-03T10:30:40.669Z,17.10
2023-04-03T10:33:22.110Z,16.90
2023-04-03T10:36:26.180Z,16.70
2023-04-03T10:39:21.469Z,16.50
2023-04-03T10:42:00.895Z,16.40
2023-04-03T10:44:58.932Z,16.40
2023-04-03T10:47:47.530Z,16.50
2023-04-03T10:50:26.931Z,16.60
2023-04-03T10:53:34.070Z,16.60
2023-04-03T10:56:17.085Z,16.60
2023-04-03T10:58:58.954Z,16.50
2023-04-03T11:01:34.509Z,16.40
2023-04-03T11:04:08.187Z,16.40
2023-04-03T11:06:52.029Z,16.40
2023-04-03T11:09:30.235Z,16.50
2023-04-03T11:12:06.840Z,16.60
2023-04-03T11:14:39.433Z,16.70
2023-04-03T11:17:12.413Z,16.90
2023-04-03T11:19:53.404Z,17.20
2023-04-03T11:22:30.905Z,17.50
2023-04-03T11:25:14.928Z,17.70
2023-04-03T11:27:54.494Z,18.00
2023-04-03T11:30:24.894Z,18.20
2023-04-03T11:33:35.322Z,18.40
2023-04-03T11:36:18.857Z,18.60
2023-04-03T11:38:57.902Z,18.80
2023-04-03T11:41:36.384Z,18.70
2023-04-03T11:44:31.201Z,18.40
2023-04-03T11:47:02.075Z,18.20
2023-04-03T11:49:55.268Z,18.10
2023-04-03T11:52:45.011Z,18.30
2023-04-03T11:55:25.495Z,18.30
2023-04-03T11:57:59.438Z,18.30
2023-04-03T12:00:48.938Z,18.30
2023-04-03T12:03:44.539Z,18.50
2023-04-03T12:06:15.776Z,18.70
2023-04-03T12:08:43.896Z,18.90
2023-04-03T12:11:11.886Z,19.10
2023-04-03T12:13:58.965Z,19.30
2023-04-03T12:16:30.864Z,19.40
2023-04-03T12:19:04.059Z,19.40
2023-04-03T12:21:59.687Z,19.40
2023-04-03T12:24:31.929Z,19.30
2023-04-03T12:27:11.429Z,19.20
2023-04-03T12:30:01.847Z,19.10
2023-04-03T12:32:42.770Z,18.90
2023-04-03T12:35:30.756Z,18.80
2023-04-03T12:38:18.867Z,18.70
2023-04-03T12:41:04.526Z,18.60
2023-04-03T12:43:59.688Z,18.60
2023-04-03T12:46:38.564Z,18.60
2023-04-03T12:49:34.943Z,18.50
2023-04-03T12:52:07.306Z,18.60
2023-04-03T12:54:42.436Z,18.50
2023-04-03T12:57:20.528Z,18.50
2023-04-03T12:59:49.959Z,18.50
2023-04-03T13:02:28.827Z,18.50
2023-04-03T13:05:11.196Z,18.50
2023-04-03T13:07:42.261Z,18.50
2023-04-03T13:10:10.340Z,18.40
2023-04-03T13:12:49.583Z,18.40
2023-04-03T13:15:24.454Z,18.30
2023-04-03T13:17:54.017Z,18.40
2023-04-03T13:20:25.623Z,18.30
2023-04-03T13:22:58.286Z,18.30
2023-04-03T13:25:31.131Z,18.30
2023-04-03T13:28:12.736Z,18.20
2023-04-03T13:30:55.379Z,18.20
2023-04-03T13:33:27.959Z,18.20
2023-04-03T13:36:18.451Z,18.20
2023-04-03T13:38:46.415Z,18.20
2023-04-03T13:41:27.708Z,18.10
2023-04-03T13:44:03.521Z,18.10
2023-04-03T13:46:38.143Z,18.10
2023-04-03T13:49:21.062Z,18.00
2023-04-03T13:52:00.364Z,18.00
2023-04-03T13:54:37.581Z,18.00
2023-04-03T13:57:13.441Z,17.90
2023-04-03T13:59:41.885Z,17.90
2023-04-03T14:02:21.621Z,17.90
2023-04-03T14:04:57.789Z,17.90
2023-04-03T14:07:27.840Z,17.80
2023-04-03T14:09:55.515Z,17.70
2023-04-03T14:12:37.227Z,17.70
2023-04-03T14:15:27.275Z,17.70
2023-04-03T14:17:54.369Z,17.60
2023-04-03T14:20:25.630Z,17.60
2023-04-03T14:22:52.977Z,17.70
2023-04-03T14:25:20.756Z,17.70
2023-04-03T14:27:50.725Z,17.60
2023-04-03T14:30:27.407Z,17.70
2023-04-03T14:32:55.585Z,17.60
2023-04-03T14:35:23.818Z,17.70
2023-04-03T14:37:51.920Z,17.60
2023-04-03T14:40:27.715Z,17.60
2023-04-03T14:42:56.512Z,17.40
2023-04-03T14:45:24.633Z,17.30
2023-04-03T14:47:56.963Z,17.30
2023-04-03T14:50:26.675Z,17.20
2023-04-03T14:52:56.370Z,17.10
2023-04-03T14:55:25.235Z,17.00
2023-04-03T14:57:53.104Z,16.90
2023-04-03T15:00:22.130Z,16.90
2023-04-03T15:02:49.790Z,16.80
2023-04-03T15:05:17.878Z,16.80
2023-04-03T15:07:49.581Z,16.80
2023-04-03T15:10:21.234Z,16.80
2023-04-03T15:12:49.736Z,16.70
2023-04-03T15:15:18.210Z,16.70
2023-04-03T15:17:46.134Z,16.60
2023-04-03T15:20:19.231Z,16.60
2023-04-03T15:22:46.809Z,16.50
2023-04-03T15:25:13.727Z,16.50
2023-04-03T15:27:41.501Z,16.50
2023-04-03T15:30:12.916Z,16.40
2023-04-03T15:32:39.938Z,16.30
2023-04-03T15:35:07.235Z,16.30
2023-04-03T15:37:34.285Z,16.30
2023-04-03T15:40:01.309Z,16.20
2023-04-03T15:42:28.283Z,16.20
2023-04-03T15:44:55.417Z,16.20
2023-04-03T15:47:22.405Z,16.10
2023-04-03T15:49:49.350Z,16.00
2023-04-03T15:52:16.398Z,16.00
2023-04-03T15:54:43.272Z,15.90
2023-04-03T15:57:10.324Z,15.90
2023-04-03T15:59:37.311Z,15.80
2023-04-03T16:02:09.249Z,15.80
2023-04-03T16:04:36.572Z,15.70
2023-04-03T16:07:04.752Z,15.70
2023-04-03T16:09:33.718Z,15.60
2023-04-03T16:12:01.672Z,15.50
2023-04-03T16:14:31.220Z,15.50
2023-04-03T16:17:02.267Z,15.40
2023-04-03T16:19:31.408Z,15.40
2023-04-03T16:21:58.595Z,15.30
2023-04-03T16:24:25.555Z,15.30
2023-04-03T16:26:54.297Z,15.20
2023-04-03T16:29:21.387Z,15.20
2023-04-03T16:31:48.540Z,15.10
2023-04-03T16:34:16.401Z,15.10
2023-04-03T16:36:43.637Z,15.00
2023-04-03T16:39:10.873Z,15.00
2023-04-03T16:41:37.771Z,14.90
2023-04-03T16:44:04.806Z,14.90
2023-04-03T16:46:31.798Z,14.80
2023-04-03T16:48:58.922Z,14.80
2023-04-03T16:51:25.936Z,14.70
2023-04-03T16:53:52.810Z,14.60
2023-04-03T16:56:19.918Z,14.60
2023-04-03T16:58:47.219Z,14.50
2023-04-03T17:01:19.664Z,14.40
2023-04-03T17:03:47.124Z,14.30
2023-04-03T17:06:19.041Z,14.30
2023-04-03T17:08:48.221Z,14.20
2023-04-03T17:11:28.032Z,14.10
2023-04-03T17:13:55.060Z,14.00
2023-04-03T17:16:22.485Z,13.90
2023-04-03T17:18:49.797Z,13.80
2023-04-03T17:21:18.094Z,13.70
2023-04-03T17:23:49.709Z,13.70
2023-04-03T17:26:16.715Z,13.50
2023-04-03T17:28:45.525Z,13.40
2023-04-03T17:31:13.812Z,13.30
2023-04-03T17:33:41.049Z,13.20
2023-04-03T17:36:08.464Z,13.00
2023-04-03T17:38:35.787Z,12.90
2023-04-03T17:41:06.308Z,12.80
2023-04-03T17:43:34.712Z,12.70
2023-04-03T17:46:08.986Z,12.60
2023-04-03T17:48:38.297Z,12.50
2023-04-03T17:51:16.820Z,12.40
2023-04-03T17:53:44.530Z,12.30
2023-04-03T17:56:20.329Z,12.30
2023-04-03T17:58:47.299Z,12.20
2023-04-03T18:01:23.553Z,12.10
2023-04-03T18:03:53.579Z,12.10
2023-04-03T18:06:23.421Z,12.10
2023-04-03T18:08:56.656Z,12.00
2023-04-03T18:11:29.556Z,11.90
2023-04-03T18:14:02.373Z,11.90
2023-04-03T18:16:30.080Z,11.80
2023-04-03T18:19:06.926Z,11.80
2023-04-03T18:21:46.010Z,11.70
2023-04-03T18:24:15.783Z,11.60
2023-04-03T18:26:44.581Z,11.60
2023-04-03T18:29:12.801Z,11.50
2023-04-03T18:31:43.098Z,11.50
2023-04-03T18:34:10.083Z,11.40
2023-04-03T18:36:37.171Z,11.40
2023-04-03T18:39:04.264Z,11.30
2023-04-03T18:41:35.399Z,11.20
2023-04-03T18:44:06.528Z,11.20
2023-04-03T18:46:34.120Z,11.10
2023-04-03T18:49:01.141Z,11.10
2023-04-03T18:51:28.197Z,11.00
2023-04-03T18:53:55.475Z,11.00
2023-04-03T18:56:22.944Z,11.00
2023-04-03T18:58:50.100Z,10.90
2023-04-03T19:01:17.611Z,10.90
2023-04-03T19:03:44.992Z,10.80
2023-04-03T19:06:12.838Z,10.80
2023-04-03T19:08:40.594Z,10.80
2023-04-03T19:11:07.865Z,10.80
2023-04-03T19:13:35.472Z,10.70
2023-04-03T19:16:02.633Z,10.80
2023-04-03T19:18:30.311Z,10.70
2023-04-03T19:20:57.734Z,10.70
2023-04-03T19:23:25.177Z,10.70
2023-04-03T19:26:06.718Z,10.70
2023-04-03T19:28:33.884Z,10.70
2023-04-03T19:31:01.633Z,10.60
2023-04-03T19:33:28.963Z,10.60
2023-04-03T19:35:56.470Z,10.60
2023-04-03T19:38:23.458Z,10.60
2023-04-03T19:40:50.524Z,10.60
2023-04-03T19:43:17.712Z,10.60
2023-04-03T19:45:46.419Z,10.60
2023-04-03T19:48:14.122Z,10.60
2023-04-03T19:50:41.742Z,10.50
2023-04-03T19:53:14.511Z,10.50
2023-04-03T19:55:41.725Z,10.50
2023-04-03T19:58:08.697Z,10.40
2023-04-03T20:00:35.773Z,10.40
2023-04-03T20:03:02.727Z,10.40
2023-04-03T20:05:29.772Z,10.40
2023-04-03T20:07:56.722Z,10.30
2023-04-03T20:10:24.065Z,10.30
2023-04-03T20:12:51.178Z,10.20
2023-04-03T20:15:18.538Z,10.20
2023-04-03T20:17:45.699Z,10.20
2023-04-03T20:20:13.423Z,10.10
2023-04-03T20:22:40.473Z,10.10
2023-04-03T20:25:10.612Z,10.10
2023-04-03T20:27:39.556Z,10.10
2023-04-03T20:30:10.737Z,10.10
2023-04-03T20:32:37.761Z,10.00
2023-04-03T20:35:05.058Z,10.00
2023-04-03T20:37:32.653Z,10.00
2023-04-03T20:40:00.370Z,9.90
2023-04-03T20:42:27.697Z,9.90
2023-04-03T20:44:55.366Z,9.80
2023-04-03T20:47:23.002Z,9.80
2023-04-03T20:49:52.433Z,9.80
2023-04-03T20:52:19.698Z,9.80
2023-04-03T20:54:47.220Z,9.80
2023-04-03T20:57:14.744Z,9.70
2023-04-03T20:59:42.465Z,9.70
2023-04-03T21:02:09.761Z,9.70
2023-04-03T21:04:45.413Z,9.70
2023-04-03T21:07:53.241Z,9.70
2023-04-03T21:10:59.150Z,9.60
2023-04-03T21:14:05.610Z,9.50
2023-04-03T21:16:32.871Z,9.50
2023-04-03T21:19:12.373Z,9.50
2023-04-03T21:21:39.952Z,9.40
2023-04-03T21:24:10.056Z,9.40
2023-04-03T21:26:38.781Z,9.40
2023-04-03T21:29:06.774Z,9.30
2023-04-03T21:32:01.876Z,9.30
2023-04-03T21:34:31.656Z,9.20
2023-04-03T21:37:07.947Z,9.20
2023-04-03T21:39:35.210Z,9.20
2023-04-03T21:42:02.182Z,9.10
2023-04-03T21:44:29.101Z,9.10
2023-04-03T21:46:56.142Z,9.10
2023-04-03T21:49:24.742Z,9.10
2023-04-03T21:51:52.471Z,9.00
2023-04-03T21:54:20.496Z,9.00
2023-04-03T21:56:52.319Z,9.00
2023-04-03T21:59:19.564Z,9.10
2023-04-03T22:01:46.693Z,9.10
2023-04-03T22:04:13.723Z,9.10
2023-04-03T22:06:40.902Z,9.10
2023-04-03T22:09:08.200Z,9.00
2023-04-03T22:11:35.094Z,9.00
2023-04-03T22:14:02.010Z,8.90
2023-04-03T22:16:29.029Z,8.90
2023-04-03T22:18:59.152Z,8.80
2023-04-03T22:21:26.085Z,8.70
2023-04-03T22:23:54.552Z,8.60
2023-04-03T22:26:21.803Z,8.60
2023-04-03T22:28:48.894Z,8.50
2023-04-03T22:31:16.862Z,8.40
2023-04-03T22:33:45.562Z,8.30
2023-04-03T22:36:13.837Z,8.20
2023-04-03T22:38:44.895Z,8.20
2023-04-03T22:41:12.069Z,8.10
2023-04-03T22:43:39.920Z,8.10
2023-04-03T22:46:08.842Z,8.10
2023-04-03T22:48:43.376Z,8.10
2023-04-03T22:51:10.463Z,8.20
2023-04-03T22:53:38.230Z,8.20
2023-04-03T22:56:08.719Z,8.30
2023-04-03T22:58:35.841Z,8.30
2023-04-03T23:01:07.436Z,8.30
2023-04-03T23:03:39.453Z,8.40
2023-04-03T23:06:07.733Z,8.40
2023-04-03T23:08:37.896Z,8.50
2023-04-03T23:11:06.961Z,8.40
2023-04-03T23:13:33.910Z,8.40
2023-04-03T23:16:02.504Z,8.40
2023-04-03T23:18:31.412Z,8.40
2023-04-03T23:21:03.745Z,8.30
2023-04-03T23:23:31.958Z,8.30
2023-04-03T23:26:01.350Z,8.30
2023-04-03T23:28:29.450Z,8.40
2023-04-03T23:31:10.297Z,8.30
2023-04-03T23:33:38.418Z,8.40
2023-04-03T23:36:09.119Z,8.40
2023-04-03T23:38:37.158Z,8.40
2023-04-03T23:41:04.094Z,8.40
2023-04-03T23:43:32.031Z,8.40
2023-04-03T23:45:59.093Z,8.40
2023-04-03T23:48:26.140Z,8.40
2023-04-03T23:50:52.982Z,8.40
2023-04-03T23:53:19.987Z,8.30
2023-04-03T23:55:47.145Z,8.40
2023-04-03T23:58:14.160Z,8.40
